sensor_id;sensor_type;location;lat;lon;timestamp;pressure;altitude;pressure_sealevel;temperature;humidity
75891;BME280;64571;47.512;19.054;2023-07-13T00:01:38;100175.50;;;25.64;65.88
75891;BME280;64571;47.512;19.054;2023-07-13T00:04:41;100160.84;;;25.62;66.03
75891;BME280;64571;47.512;19.054;2023-07-13T00:07:44;100141.75;;;25.51;67.12
75891;BME280;64571;47.512;19.054;2023-07-13T00:10:52;100158.78;;;25.30;68.46
75891;BME280;64571;47.512;19.054;2023-07-13T00:13:56;100154.75;;;25.31;69.18
75891;BME280;64571;47.512;19.054;2023-07-13T00:16:59;100129.13;;;25.24;69.70
75891;BME280;64571;47.512;19.054;2023-07-13T00:20:03;100112.44;;;25.12;70.34
75891;BME280;64571;47.512;19.054;2023-07-13T00:23:07;100119.72;;;24.95;69.84
75891;BME280;64571;47.512;19.054;2023-07-13T00:26:10;100112.34;;;24.80;69.80
75891;BME280;64571;47.512;19.054;2023-07-13T00:29:15;100092.03;;;24.70;70.71
75891;BME280;64571;47.512;19.054;2023-07-13T00:32:18;100083.41;;;24.49;70.75
75891;BME280;64571;47.512;19.054;2023-07-13T00:35:21;100072.53;;;24.69;70.81
75891;BME280;64571;47.512;19.054;2023-07-13T00:38:24;100072.56;;;24.72;69.93
75891;BME280;64571;47.512;19.054;2023-07-13T00:41:27;100057.09;;;24.81;69.14
75891;BME280;64571;47.512;19.054;2023-07-13T00:44:30;100042.50;;;24.75;68.49
75891;BME280;64571;47.512;19.054;2023-07-13T00:47:33;100047.37;;;24.78;66.85
75891;BME280;64571;47.512;19.054;2023-07-13T00:50:37;100045.72;;;24.70;66.93
75891;BME280;64571;47.512;19.054;2023-07-13T00:53:41;100038.84;;;24.78;67.20
75891;BME280;64571;47.512;19.054;2023-07-13T00:56:45;100039.69;;;24.86;65.96
75891;BME280;64571;47.512;19.054;2023-07-13T00:59:58;100030.72;;;24.87;65.02
75891;BME280;64571;47.512;19.054;2023-07-13T01:03:01;100029.09;;;24.93;65.41
75891;BME280;64571;47.512;19.054;2023-07-13T01:06:07;100022.63;;;24.96;65.34
75891;BME280;64571;47.512;19.054;2023-07-13T01:09:11;100014.06;;;25.07;64.94
75891;BME280;64571;47.512;19.054;2023-07-13T01:12:15;100019.81;;;25.11;64.66
75891;BME280;64571;47.512;19.054;2023-07-13T01:15:43;100016.97;;;25.14;63.60
75891;BME280;64571;47.512;19.054;2023-07-13T01:18:47;100030.37;;;25.14;63.78
75891;BME280;64571;47.512;19.054;2023-07-13T01:21:52;100027.09;;;25.05;63.34
75891;BME280;64571;47.512;19.054;2023-07-13T01:24:55;100021.78;;;25.07;63.53
75891;BME280;64571;47.512;19.054;2023-07-13T01:27:58;100033.97;;;25.04;64.84
75891;BME280;64571;47.512;19.054;2023-07-13T01:31:01;100034.38;;;24.98;65.36
75891;BME280;64571;47.512;19.054;2023-07-13T01:34:04;100020.97;;;24.88;66.00
75891;BME280;64571;47.512;19.054;2023-07-13T01:37:08;100018.12;;;24.85;66.47
75891;BME280;64571;47.512;19.054;2023-07-13T01:40:12;100020.56;;;24.79;66.63
75891;BME280;64571;47.512;19.054;2023-07-13T01:43:15;100009.19;;;24.79;66.40
75891;BME280;64571;47.512;19.054;2023-07-13T01:46:19;99995.41;;;24.81;66.57
75891;BME280;64571;47.512;19.054;2023-07-13T01:49:25;100005.53;;;24.75;66.96
75891;BME280;64571;47.512;19.054;2023-07-13T01:52:28;100013.25;;;24.74;67.19
75891;BME280;64571;47.512;19.054;2023-07-13T01:55:33;99990.47;;;24.67;66.98
75891;BME280;64571;47.512;19.054;2023-07-13T01:58:36;99991.31;;;24.61;67.31
75891;BME280;64571;47.512;19.054;2023-07-13T02:01:39;99989.69;;;24.63;67.41
75891;BME280;64571;47.512;19.054;2023-07-13T02:04:42;99979.94;;;24.61;67.42
75891;BME280;64571;47.512;19.054;2023-07-13T02:07:45;99982.38;;;24.59;67.49
75891;BME280;64571;47.512;19.054;2023-07-13T02:10:47;99972.63;;;24.56;67.23
75891;BME280;64571;47.512;19.054;2023-07-13T02:13:51;99972.59;;;24.53;66.88
75891;BME280;64571;47.512;19.054;2023-07-13T02:16:54;99988.44;;;24.54;67.28
75891;BME280;64571;47.512;19.054;2023-07-13T02:19:56;99999.41;;;24.41;68.09
75891;BME280;64571;47.512;19.054;2023-07-13T02:22:59;99994.03;;;24.29;68.30
75891;BME280;64571;47.512;19.054;2023-07-13T02:26:03;99991.59;;;24.27;69.15
75891;BME280;64571;47.512;19.054;2023-07-13T02:29:06;99992.81;;;24.19;70.21
75891;BME280;64571;47.512;19.054;2023-07-13T02:32:08;99992.78;;;24.15;70.34
75891;BME280;64571;47.512;19.054;2023-07-13T02:35:11;99990.34;;;24.10;70.63
75891;BME280;64571;47.512;19.054;2023-07-13T02:38:14;100004.47;;;23.99;71.22
75891;BME280;64571;47.512;19.054;2023-07-13T02:41:16;100014.59;;;23.93;71.76
75891;BME280;64571;47.512;19.054;2023-07-13T02:44:19;100006.41;;;23.81;72.65
75891;BME280;64571;47.512;19.054;2023-07-13T02:47:22;99995.44;;;23.69;73.13
75891;BME280;64571;47.512;19.054;2023-07-13T02:50:25;99987.59;;;23.52;74.14
75891;BME280;64571;47.512;19.054;2023-07-13T02:53:27;100020.03;;;23.54;74.42
75891;BME280;64571;47.512;19.054;2023-07-13T02:56:31;100004.22;;;23.53;74.34
75891;BME280;64571;47.512;19.054;2023-07-13T02:59:34;100011.91;;;23.53;74.63
75891;BME280;64571;47.512;19.054;2023-07-13T03:02:37;100016.34;;;23.50;74.55
75891;BME280;64571;47.512;19.054;2023-07-13T03:05:41;100017.19;;;23.54;74.37
75891;BME280;64571;47.512;19.054;2023-07-13T03:08:44;100026.87;;;23.49;74.60
75891;BME280;64571;47.512;19.054;2023-07-13T03:11:48;100037.44;;;23.53;74.49
75891;BME280;64571;47.512;19.054;2023-07-13T03:14:51;100042.72;;;23.50;74.64
75891;BME280;64571;47.512;19.054;2023-07-13T03:17:53;100039.44;;;23.48;74.45
75891;BME280;64571;47.512;19.054;2023-07-13T03:20:56;100032.12;;;23.44;74.70
75891;BME280;64571;47.512;19.054;2023-07-13T03:23:59;100050.84;;;23.56;74.26
75891;BME280;64571;47.512;19.054;2023-07-13T03:27:04;100038.69;;;23.59;73.83
75891;BME280;64571;47.512;19.054;2023-07-13T03:30:08;100039.63;;;23.70;73.42
75891;BME280;64571;47.512;19.054;2023-07-13T03:33:11;100045.69;;;23.72;73.24
75891;BME280;64571;47.512;19.054;2023-07-13T03:36:19;100048.13;;;23.70;73.10
75891;BME280;64571;47.512;19.054;2023-07-13T03:39:23;100024.63;;;23.73;73.02
75891;BME280;64571;47.512;19.054;2023-07-13T03:42:27;100030.28;;;23.73;72.96
75891;BME280;64571;47.512;19.054;2023-07-13T03:45:29;100031.50;;;23.72;72.97
75891;BME280;64571;47.512;19.054;2023-07-13T03:48:32;100051.44;;;23.79;72.57
75891;BME280;64571;47.512;19.054;2023-07-13T03:51:34;100057.19;;;23.93;71.88
75891;BME280;64571;47.512;19.054;2023-07-13T03:54:37;100049.50;;;23.97;71.62
75891;BME280;64571;47.512;19.054;2023-07-13T03:57:40;100047.53;;;24.05;71.10
75891;BME280;64571;47.512;19.054;2023-07-13T04:00:43;100038.97;;;24.02;70.56
75891;BME280;64571;47.512;19.054;2023-07-13T04:03:46;100037.81;;;24.17;70.31
75891;BME280;64571;47.512;19.054;2023-07-13T04:06:49;100048.78;;;24.22;69.94
75891;BME280;64571;47.512;19.054;2023-07-13T04:09:54;100047.22;;;24.28;69.37
75891;BME280;64571;47.512;19.054;2023-07-13T04:12:57;100074.41;;;24.29;69.19
75891;BME280;64571;47.512;19.054;2023-07-13T04:15:59;100091.06;;;24.34;68.55
75891;BME280;64571;47.512;19.054;2023-07-13T04:19:02;100112.13;;;24.26;68.59
75891;BME280;64571;47.512;19.054;2023-07-13T04:22:05;100120.62;;;24.26;68.29
75891;BME280;64571;47.512;19.054;2023-07-13T04:25:07;100121.84;;;24.25;67.95
75891;BME280;64571;47.512;19.054;2023-07-13T04:28:10;100121.91;;;24.32;67.55
75891;BME280;64571;47.512;19.054;2023-07-13T04:31:13;100113.03;;;24.44;66.97
75891;BME280;64571;47.512;19.054;2023-07-13T04:34:16;100124.44;;;24.52;66.34
75891;BME280;64571;47.512;19.054;2023-07-13T04:37:20;100131.34;;;24.54;66.24
75891;BME280;64571;47.512;19.054;2023-07-13T04:40:23;100128.91;;;24.53;66.58
75891;BME280;64571;47.512;19.054;2023-07-13T04:43:26;100145.56;;;24.50;66.69
75891;BME280;64571;47.512;19.054;2023-07-13T04:46:29;100154.09;;;24.58;66.46
75891;BME280;64571;47.512;19.054;2023-07-13T04:49:31;100146.00;;;24.60;66.32
75891;BME280;64571;47.512;19.054;2023-07-13T04:52:34;100163.44;;;24.58;66.62
75891;BME280;64571;47.512;19.054;2023-07-13T04:55:37;100166.69;;;24.57;65.98
75891;BME280;64571;47.512;19.054;2023-07-13T04:58:40;100179.72;;;24.65;65.63
75891;BME280;64571;47.512;19.054;2023-07-13T05:01:42;100199.19;;;24.63;66.54
75891;BME280;64571;47.512;19.054;2023-07-13T05:04:48;100206.44;;;24.46;68.55
75891;BME280;64571;47.512;19.054;2023-07-13T05:07:51;100231.44;;;24.30;70.75
75891;BME280;64571;47.512;19.054;2023-07-13T05:10:54;100260.69;;;24.30;71.13
75891;BME280;64571;47.512;19.054;2023-07-13T05:13:57;100298.81;;;24.29;71.48
75891;BME280;64571;47.512;19.054;2023-07-13T05:17:00;100324.22;;;23.67;71.36
75891;BME280;64571;47.512;19.054;2023-07-13T05:20:03;100347.16;;;23.21;74.69
75891;BME280;64571;47.512;19.054;2023-07-13T05:23:06;100365.22;;;22.10;83.03
75891;BME280;64571;47.512;19.054;2023-07-13T05:26:09;100342.88;;;21.82;83.97
75891;BME280;64571;47.512;19.054;2023-07-13T05:29:12;100325.16;;;21.85;83.74
75891;BME280;64571;47.512;19.054;2023-07-13T05:32:14;100329.69;;;21.90;83.70
75891;BME280;64571;47.512;19.054;2023-07-13T05:35:16;100337.91;;;21.98;83.90
75891;BME280;64571;47.512;19.054;2023-07-13T05:38:19;100341.94;;;21.97;83.78
75891;BME280;64571;47.512;19.054;2023-07-13T05:41:22;100339.22;;;21.82;83.28
75891;BME280;64571;47.512;19.054;2023-07-13T05:44:25;100305.56;;;21.54;83.39
75891;BME280;64571;47.512;19.054;2023-07-13T05:47:27;100308.13;;;21.39;83.69
75891;BME280;64571;47.512;19.054;2023-07-13T05:50:30;100313.00;;;21.42;85.04
75891;BME280;64571;47.512;19.054;2023-07-13T05:53:34;100327.97;;;21.43;84.46
75891;BME280;64571;47.512;19.054;2023-07-13T05:56:37;100294.41;;;21.22;83.83
75891;BME280;64571;47.512;19.054;2023-07-13T05:59:40;100299.59;;;21.01;83.05
75891;BME280;64571;47.512;19.054;2023-07-13T06:02:42;100301.53;;;20.96;83.75
75891;BME280;64571;47.512;19.054;2023-07-13T06:05:45;100303.31;;;20.85;84.17
75891;BME280;64571;47.512;19.054;2023-07-13T06:08:48;100292.47;;;20.87;84.89
75891;BME280;64571;47.512;19.054;2023-07-13T06:11:51;100256.16;;;20.70;84.31
75891;BME280;64571;47.512;19.054;2023-07-13T06:14:53;100233.84;;;20.84;85.70
75891;BME280;64571;47.512;19.054;2023-07-13T06:17:56;100179.91;;;20.89;84.90
75891;BME280;64571;47.512;19.054;2023-07-13T06:20:59;99955.94;;;20.69;85.98
75891;BME280;64571;47.512;19.054;2023-07-13T06:24:02;99885.72;;;20.45;87.74
75891;BME280;64571;47.512;19.054;2023-07-13T06:27:05;100023.66;;;20.66;86.79
75891;BME280;64571;47.512;19.054;2023-07-13T06:30:08;99995.66;;;20.80;87.89
75891;BME280;64571;47.512;19.054;2023-07-13T06:33:11;99922.94;;;20.51;88.50
75891;BME280;64571;47.512;19.054;2023-07-13T06:36:14;99929.44;;;20.78;87.16
75891;BME280;64571;47.512;19.054;2023-07-13T06:39:17;99936.12;;;20.92;85.60
75891;BME280;64571;47.512;19.054;2023-07-13T06:42:19;99990.19;;;21.14;83.45
75891;BME280;64571;47.512;19.054;2023-07-13T06:45:22;99967.28;;;21.22;82.98
75891;BME280;64571;47.512;19.054;2023-07-13T06:48:25;99968.28;;;21.34;82.72
75891;BME280;64571;47.512;19.054;2023-07-13T06:51:27;99987.84;;;21.46;81.98
75891;BME280;64571;47.512;19.054;2023-07-13T06:54:30;99968.66;;;21.59;81.40
75891;BME280;64571;47.512;19.054;2023-07-13T06:57:33;99959.81;;;21.64;81.50
75891;BME280;64571;47.512;19.054;2023-07-13T07:00:35;99970.59;;;21.85;80.76
75891;BME280;64571;47.512;19.054;2023-07-13T07:03:38;99978.87;;;22.00;79.01
75891;BME280;64571;47.512;19.054;2023-07-13T07:06:41;99978.00;;;22.27;78.86
75891;BME280;64571;47.512;19.054;2023-07-13T07:09:43;99972.00;;;22.76;77.75
75891;BME280;64571;47.512;19.054;2023-07-13T07:12:46;99977.34;;;23.33;76.99
75891;BME280;64571;47.512;19.054;2023-07-13T07:15:50;100006.94;;;23.35;74.67
75891;BME280;64571;47.512;19.054;2023-07-13T07:18:52;100079.34;;;23.22;75.26
75891;BME280;64571;47.512;19.054;2023-07-13T07:21:55;100133.22;;;23.22;75.63
75891;BME280;64571;47.512;19.054;2023-07-13T07:24:58;100118.94;;;23.56;74.68
75891;BME280;64571;47.512;19.054;2023-07-13T07:28:00;100127.41;;;23.48;74.69
75891;BME280;64571;47.512;19.054;2023-07-13T07:31:06;100133.75;;;23.79;73.54
75891;BME280;64571;47.512;19.054;2023-07-13T07:34:11;100156.75;;;23.67;72.90
75891;BME280;64571;47.512;19.054;2023-07-13T07:37:14;100177.78;;;24.10;72.06
75891;BME280;64571;47.512;19.054;2023-07-13T07:40:20;100173.72;;;23.60;71.97
75891;BME280;64571;47.512;19.054;2023-07-13T07:43:26;100175.94;;;23.81;71.78
75891;BME280;64571;47.512;19.054;2023-07-13T07:46:29;100181.72;;;23.95;71.00
75891;BME280;64571;47.512;19.054;2023-07-13T07:49:32;100182.84;;;24.38;69.90
75891;BME280;64571;47.512;19.054;2023-07-13T07:52:34;100173.16;;;24.54;68.85
75891;BME280;64571;47.512;19.054;2023-07-13T07:55:37;100184.56;;;24.61;68.10
75891;BME280;64571;47.512;19.054;2023-07-13T07:58:42;100181.38;;;24.73;68.32
75891;BME280;64571;47.512;19.054;2023-07-13T08:01:48;100184.72;;;25.00;67.34
75891;BME280;64571;47.512;19.054;2023-07-13T08:04:55;100194.47;;;24.95;66.55
75891;BME280;64571;47.512;19.054;2023-07-13T08:08:01;100201.75;;;24.89;66.67
75891;BME280;64571;47.512;19.054;2023-07-13T08:11:06;100189.25;;;25.08;65.38
75891;BME280;64571;47.512;19.054;2023-07-13T08:14:12;100188.41;;;25.08;65.21
75891;BME280;64571;47.512;19.054;2023-07-13T08:17:15;100180.69;;;25.05;65.58
75891;BME280;64571;47.512;19.054;2023-07-13T08:20:18;100183.19;;;25.28;64.34
75891;BME280;64571;47.512;19.054;2023-07-13T08:23:21;100182.75;;;25.15;65.37
75891;BME280;64571;47.512;19.054;2023-07-13T08:26:23;100192.63;;;25.78;64.20
75891;BME280;64571;47.512;19.054;2023-07-13T08:29:26;100192.59;;;25.89;63.80
75891;BME280;64571;47.512;19.054;2023-07-13T08:32:29;100192.22;;;25.90;63.08
75891;BME280;64571;47.512;19.054;2023-07-13T08:35:32;100192.94;;;25.30;64.48
75891;BME280;64571;47.512;19.054;2023-07-13T08:38:34;100189.72;;;25.57;63.67
75891;BME280;64571;47.512;19.054;2023-07-13T08:41:37;100179.56;;;26.13;62.50
75891;BME280;64571;47.512;19.054;2023-07-13T08:45:02;100175.09;;;26.01;62.01
75891;BME280;64571;47.512;19.054;2023-07-13T08:51:38;100182.44;;;25.91;61.68
75891;BME280;64571;47.512;19.054;2023-07-13T08:54:45;100188.94;;;25.74;62.64
75891;BME280;64571;47.512;19.054;2023-07-13T08:57:59;100185.28;;;25.88;62.74
75891;BME280;64571;47.512;19.054;2023-07-13T09:04:41;100179.19;;;26.00;61.85
75891;BME280;64571;47.512;19.054;2023-07-13T09:11:56;100179.91;;;26.47;60.07
75891;BME280;64571;47.512;19.054;2023-07-13T09:15:04;100184.84;;;26.18;60.35
75891;BME280;64571;47.512;19.054;2023-07-13T09:21:23;100180.50;;;27.01;58.50
75891;BME280;64571;47.512;19.054;2023-07-13T09:25:00;100174.16;;;26.65;59.12
75891;BME280;64571;47.512;19.054;2023-07-13T09:31:34;100175.31;;;26.74;58.96
75891;BME280;64571;47.512;19.054;2023-07-13T09:34:37;100184.81;;;27.34;57.36
75891;BME280;64571;47.512;19.054;2023-07-13T09:37:40;100194.34;;;27.69;56.42
75891;BME280;64571;47.512;19.054;2023-07-13T09:47:22;100208.91;;;27.92;55.24
75891;BME280;64571;47.512;19.054;2023-07-13T09:50:25;100215.25;;;27.59;56.51
75891;BME280;64571;47.512;19.054;2023-07-13T09:53:30;100219.44;;;27.43;56.96
75891;BME280;64571;47.512;19.054;2023-07-13T09:56:33;100221.53;;;27.91;55.34
75891;BME280;64571;47.512;19.054;2023-07-13T09:59:41;100222.28;;;27.43;56.40
75891;BME280;64571;47.512;19.054;2023-07-13T10:02:45;100213.09;;;27.73;55.21
75891;BME280;64571;47.512;19.054;2023-07-13T10:05:50;100219.13;;;27.86;54.06
75891;BME280;64571;47.512;19.054;2023-07-13T10:08:56;100218.41;;;27.79;54.12
75891;BME280;64571;47.512;19.054;2023-07-13T10:11:59;100196.69;;;28.30;53.11
75891;BME280;64571;47.512;19.054;2023-07-13T10:15:01;100223.59;;;27.87;53.90
75891;BME280;64571;47.512;19.054;2023-07-13T10:18:25;100214.31;;;28.62;52.88
75891;BME280;64571;47.512;19.054;2023-07-13T10:21:33;100215.22;;;28.56;52.86
75891;BME280;64571;47.512;19.054;2023-07-13T10:24:39;100224.44;;;28.33;52.95
75891;BME280;64571;47.512;19.054;2023-07-13T10:27:41;100206.50;;;28.29;53.14
75891;BME280;64571;47.512;19.054;2023-07-13T10:30:46;100220.50;;;28.16;52.51
75891;BME280;64571;47.512;19.054;2023-07-13T10:33:49;100216.16;;;28.45;51.63
75891;BME280;64571;47.512;19.054;2023-07-13T10:36:52;100228.97;;;28.68;51.71
75891;BME280;64571;47.512;19.054;2023-07-13T10:39:56;100241.88;;;28.83;50.72
75891;BME280;64571;47.512;19.054;2023-07-13T10:43:02;100235.62;;;28.58;51.06
75891;BME280;64571;47.512;19.054;2023-07-13T10:46:10;100226.41;;;28.77;50.62
75891;BME280;64571;47.512;19.054;2023-07-13T10:49:14;100246.50;;;28.73;50.87
75891;BME280;64571;47.512;19.054;2023-07-13T10:52:50;100239.03;;;28.83;49.87
75891;BME280;64571;47.512;19.054;2023-07-13T10:56:00;100231.22;;;28.87;49.05
75891;BME280;64571;47.512;19.054;2023-07-13T11:02:28;100232.09;;;28.81;49.25
75891;BME280;64571;47.512;19.054;2023-07-13T11:05:33;100219.19;;;29.61;47.54
75891;BME280;64571;47.512;19.054;2023-07-13T11:11:40;100215.47;;;29.64;47.26
75891;BME280;64571;47.512;19.054;2023-07-13T11:15:05;100225.75;;;29.31;47.88
75891;BME280;64571;47.512;19.054;2023-07-13T11:18:23;100228.38;;;29.18;47.34
75891;BME280;64571;47.512;19.054;2023-07-13T11:21:28;100220.81;;;28.66;49.07
75891;BME280;64571;47.512;19.054;2023-07-13T11:25:00;100241.22;;;29.06;46.88
75891;BME280;64571;47.512;19.054;2023-07-13T11:31:13;100216.97;;;29.14;46.68
75891;BME280;64571;47.512;19.054;2023-07-13T11:34:24;100208.00;;;29.70;45.67
75891;BME280;64571;47.512;19.054;2023-07-13T11:37:30;100209.38;;;29.85;45.59
75891;BME280;64571;47.512;19.054;2023-07-13T11:40:34;100207.59;;;29.95;45.25
75891;BME280;64571;47.512;19.054;2023-07-13T11:43:36;100211.34;;;30.15;45.01
75891;BME280;64571;47.512;19.054;2023-07-13T11:46:45;100207.22;;;30.60;44.09
75891;BME280;64571;47.512;19.054;2023-07-13T11:49:50;100209.66;;;30.18;44.92
75891;BME280;64571;47.512;19.054;2023-07-13T11:52:54;100203.37;;;30.46;44.66
75891;BME280;64571;47.512;19.054;2023-07-13T11:55:58;100213.06;;;30.96;43.70
75891;BME280;64571;47.512;19.054;2023-07-13T11:59:06;100217.66;;;30.70;43.40
75891;BME280;64571;47.512;19.054;2023-07-13T12:02:21;100196.41;;;30.67;43.47
75891;BME280;64571;47.512;19.054;2023-07-13T12:05:28;100214.34;;;30.51;42.86
75891;BME280;64571;47.512;19.054;2023-07-13T12:08:38;100220.66;;;30.86;42.67
75891;BME280;64571;47.512;19.054;2023-07-13T12:11:43;100211.69;;;30.61;42.93
75891;BME280;64571;47.512;19.054;2023-07-13T12:14:46;100206.09;;;30.34;43.01
75891;BME280;64571;47.512;19.054;2023-07-13T12:17:49;100190.81;;;30.40;43.16
75891;BME280;64571;47.512;19.054;2023-07-13T12:20:55;100193.97;;;31.06;42.25
75891;BME280;64571;47.512;19.054;2023-07-13T12:24:00;100192.16;;;30.95;41.92
75891;BME280;64571;47.512;19.054;2023-07-13T12:27:05;100208.94;;;30.97;41.68
75891;BME280;64571;47.512;19.054;2023-07-13T12:30:28;100188.41;;;30.98;42.06
75891;BME280;64571;47.512;19.054;2023-07-13T12:33:33;100191.06;;;30.89;42.68
75891;BME280;64571;47.512;19.054;2023-07-13T12:36:38;100194.22;;;30.75;42.35
75891;BME280;64571;47.512;19.054;2023-07-13T12:39:47;100185.16;;;30.96;41.39
75891;BME280;64571;47.512;19.054;2023-07-13T12:42:51;100178.25;;;30.74;42.06
75891;BME280;64571;47.512;19.054;2023-07-13T12:46:05;100169.66;;;30.94;41.92
75891;BME280;64571;47.512;19.054;2023-07-13T12:49:23;100181.19;;;30.90;41.66
75891;BME280;64571;47.512;19.054;2023-07-13T12:52:34;100182.69;;;31.15;40.99
75891;BME280;64571;47.512;19.054;2023-07-13T12:55:53;100184.31;;;31.16;40.80
75891;BME280;64571;47.512;19.054;2023-07-13T12:59:03;100170.56;;;31.07;40.27
75891;BME280;64571;47.512;19.054;2023-07-13T13:02:26;100172.19;;;31.08;41.27
75891;BME280;64571;47.512;19.054;2023-07-13T13:05:31;100167.06;;;30.99;41.21
75891;BME280;64571;47.512;19.054;2023-07-13T13:08:35;100175.75;;;31.32;40.91
75891;BME280;64571;47.512;19.054;2023-07-13T13:11:38;100179.59;;;30.89;40.96
75891;BME280;64571;47.512;19.054;2023-07-13T13:14:42;100179.75;;;31.18;40.55
75891;BME280;64571;47.512;19.054;2023-07-13T13:17:45;100166.28;;;31.15;40.79
75891;BME280;64571;47.512;19.054;2023-07-13T13:20:50;100158.03;;;30.81;41.10
75891;BME280;64571;47.512;19.054;2023-07-13T13:23:53;100153.09;;;31.18;40.20
75891;BME280;64571;47.512;19.054;2023-07-13T13:26:56;100151.63;;;31.10;40.82
75891;BME280;64571;47.512;19.054;2023-07-13T13:30:03;100151.66;;;30.70;41.60
75891;BME280;64571;47.512;19.054;2023-07-13T13:33:10;100152.47;;;30.70;41.09
75891;BME280;64571;47.512;19.054;2023-07-13T13:36:19;100161.41;;;31.65;40.00
75891;BME280;64571;47.512;19.054;2023-07-13T13:39:49;100167.94;;;31.33;40.13
75891;BME280;64571;47.512;19.054;2023-07-13T13:43:21;100159.88;;;31.27;40.16
75891;BME280;64571;47.512;19.054;2023-07-13T13:46:28;100156.03;;;31.34;40.27
75891;BME280;64571;47.512;19.054;2023-07-13T13:49:32;100155.31;;;31.30;40.46
75891;BME280;64571;47.512;19.054;2023-07-13T13:52:35;100151.03;;;31.18;40.52
75891;BME280;64571;47.512;19.054;2023-07-13T13:55:38;100154.44;;;30.93;40.87
75891;BME280;64571;47.512;19.054;2023-07-13T13:58:41;100155.34;;;30.70;41.58
75891;BME280;64571;47.512;19.054;2023-07-13T14:01:45;100149.03;;;30.79;41.77
75891;BME280;64571;47.512;19.054;2023-07-13T14:05:00;100146.75;;;30.90;41.48
75891;BME280;64571;47.512;19.054;2023-07-13T14:08:04;100155.34;;;30.70;41.83
75891;BME280;64571;47.512;19.054;2023-07-13T14:11:11;100160.47;;;30.39;42.49
75891;BME280;64571;47.512;19.054;2023-07-13T14:14:17;100150.78;;;30.53;41.97
75891;BME280;64571;47.512;19.054;2023-07-13T14:17:25;100160.19;;;30.10;43.23
75891;BME280;64571;47.512;19.054;2023-07-13T14:20:29;100167.34;;;30.45;42.88
75891;BME280;64571;47.512;19.054;2023-07-13T14:23:32;100169.13;;;30.16;43.26
75891;BME280;64571;47.512;19.054;2023-07-13T14:26:40;100172.87;;;30.13;43.46
75891;BME280;64571;47.512;19.054;2023-07-13T14:29:43;100174.91;;;29.89;43.82
75891;BME280;64571;47.512;19.054;2023-07-13T14:32:46;100168.25;;;30.19;43.48
75891;BME280;64571;47.512;19.054;2023-07-13T14:35:50;100167.47;;;30.38;43.20
75891;BME280;64571;47.512;19.054;2023-07-13T14:38:58;100173.78;;;30.06;43.84
75891;BME280;64571;47.512;19.054;2023-07-13T14:42:01;100191.19;;;29.95;44.46
75891;BME280;64571;47.512;19.054;2023-07-13T14:45:11;100191.09;;;29.99;44.65
75891;BME280;64571;47.512;19.054;2023-07-13T14:48:15;100192.84;;;29.69;45.26
75891;BME280;64571;47.512;19.054;2023-07-13T14:51:19;100190.91;;;29.63;45.38
75891;BME280;64571;47.512;19.054;2023-07-13T14:54:22;100213.13;;;29.82;45.21
75891;BME280;64571;47.512;19.054;2023-07-13T14:57:25;100212.75;;;30.04;44.62
75891;BME280;64571;47.512;19.054;2023-07-13T15:00:28;100216.63;;;30.17;44.47
75891;BME280;64571;47.512;19.054;2023-07-13T15:03:31;100198.28;;;30.11;44.06
75891;BME280;64571;47.512;19.054;2023-07-13T15:07:12;100195.88;;;29.86;44.23
75891;BME280;64571;47.512;19.054;2023-07-13T15:10:20;100192.06;;;30.16;43.61
75891;BME280;64571;47.512;19.054;2023-07-13T15:13:23;100196.22;;;29.88;43.63
75891;BME280;64571;47.512;19.054;2023-07-13T15:16:26;100208.00;;;29.70;44.17
75891;BME280;64571;47.512;19.054;2023-07-13T15:19:29;100224.88;;;29.64;44.22
75891;BME280;64571;47.512;19.054;2023-07-13T15:22:33;100225.75;;;29.31;44.58
75891;BME280;64571;47.512;19.054;2023-07-13T15:25:36;100218.03;;;29.55;44.46
75891;BME280;64571;47.512;19.054;2023-07-13T15:28:40;100220.13;;;29.50;44.34
75891;BME280;64571;47.512;19.054;2023-07-13T15:31:44;100197.94;;;29.58;44.15
75891;BME280;64571;47.512;19.054;2023-07-13T15:34:47;100207.69;;;29.64;44.34
75891;BME280;64571;47.512;19.054;2023-07-13T15:37:50;100206.22;;;29.22;44.60
75891;BME280;64571;47.512;19.054;2023-07-13T15:40:53;100208.56;;;29.31;44.78
75891;BME280;64571;47.512;19.054;2023-07-13T15:43:57;100205.19;;;29.36;44.73
75891;BME280;64571;47.512;19.054;2023-07-13T15:47:00;100188.91;;;29.33;44.78
75891;BME280;64571;47.512;19.054;2023-07-13T15:50:12;100186.25;;;29.18;45.22
75891;BME280;64571;47.512;19.054;2023-07-13T15:53:19;100179.28;;;29.19;44.92
75891;BME280;64571;47.512;19.054;2023-07-13T15:56:24;100178.03;;;29.20;45.12
75891;BME280;64571;47.512;19.054;2023-07-13T15:59:27;100180.09;;;29.20;45.33
75891;BME280;64571;47.512;19.054;2023-07-13T16:02:30;100185.81;;;29.20;45.57
75891;BME280;64571;47.512;19.054;2023-07-13T16:05:33;100198.75;;;29.32;45.48
75891;BME280;64571;47.512;19.054;2023-07-13T16:08:36;100216.53;;;29.16;45.68
75891;BME280;64571;47.512;19.054;2023-07-13T16:11:43;100213.91;;;28.98;46.02
75891;BME280;64571;47.512;19.054;2023-07-13T16:14:45;100221.41;;;28.85;46.08
75891;BME280;64571;47.512;19.054;2023-07-13T16:17:49;100227.34;;;29.05;45.97
75891;BME280;64571;47.512;19.054;2023-07-13T16:20:53;100236.06;;;28.90;46.00
75891;BME280;64571;47.512;19.054;2023-07-13T16:24:01;100242.19;;;28.92;46.15
75891;BME280;64571;47.512;19.054;2023-07-13T16:27:09;100244.28;;;28.88;45.91
75891;BME280;64571;47.512;19.054;2023-07-13T16:30:21;100228.69;;;28.93;45.75